createdAt,value
2017-08-17T00:01:48.049Z,98790.49
2017-08-17T00:04:15.493Z,98786.17
2017-08-17T00:06:42.965Z,98778.71
2017-08-17T00:09:10.414Z,98781.31
2017-08-17T00:11:37.889Z,98776.80
2017-08-17T00:14:05.333Z,98775.48
2017-08-17T00:16:32.782Z,98766.28
2017-08-17T00:19:00.274Z,98771.02
2017-08-17T00:21:27.730Z,98767.27
2017-08-17T00:23:55.214Z,98770.20
2017-08-17T00:26:22.665Z,98769.79
2017-08-17T00:28:50.113Z,98768.20
2017-08-17T00:31:17.576Z,98770.80
2017-08-17T00:33:45.041Z,98770.75
2017-08-17T00:36:12.507Z,98771.08
2017-08-17T00:38:39.982Z,98770.77
2017-08-17T00:41:07.462Z,98774.98
2017-08-17T00:43:34.909Z,98778.56
2017-08-17T00:46:02.354Z,98778.90
2017-08-17T00:48:29.828Z,98779.20
2017-08-17T00:50:57.277Z,98768.80
2017-08-17T00:53:24.833Z,98768.30
2017-08-17T00:55:52.315Z,98765.72
2017-08-17T00:58:19.765Z,98766.14
2017-08-17T01:00:47.702Z,98768.84
2017-08-17T01:03:15.169Z,98770.16
2017-08-17T01:05:42.622Z,98772.13
2017-08-17T01:08:10.089Z,98776.30
2017-08-17T01:10:37.537Z,98769.71
2017-08-17T01:13:05.009Z,98776.84
2017-08-17T01:15:32.495Z,98776.50
2017-08-17T01:17:59.945Z,98778.91
2017-08-17T01:20:27.422Z,98771.94
2017-08-17T01:22:54.869Z,98766.27
2017-08-17T01:25:22.336Z,98764.47
2017-08-17T01:27:49.865Z,98763.37
2017-08-17T01:30:17.323Z,98763.03
2017-08-17T01:32:44.813Z,98766.77
2017-08-17T01:35:12.260Z,98767.95
2017-08-17T01:37:39.704Z,98769.84
2017-08-17T01:40:07.168Z,98766.66
2017-08-17T01:42:34.623Z,98772.81
2017-08-17T01:45:02.098Z,98767.33
2017-08-17T01:47:29.547Z,98767.55
2017-08-17T01:49:57.002Z,98766.25
2017-08-17T01:52:24.469Z,98768.84
2017-08-17T01:54:52.245Z,98760.23
2017-08-17T01:57:19.721Z,98765.13
2017-08-17T01:59:47.177Z,98761.41
2017-08-17T02:02:14.664Z,98763.38
2017-08-17T02:04:42.121Z,98767.30
2017-08-17T02:07:09.593Z,98769.00
2017-08-17T02:09:37.082Z,98762.28
2017-08-17T02:12:04.538Z,98758.27
2017-08-17T02:14:32.016Z,98752.63
2017-08-17T02:16:59.467Z,98748.38
2017-08-17T02:19:26.938Z,98741.06
2017-08-17T02:21:54.392Z,98744.12
2017-08-17T02:24:21.846Z,98746.62
2017-08-17T02:26:49.316Z,98748.83
2017-08-17T02:29:16.780Z,98739.33
2017-08-17T02:31:44.234Z,98739.84
2017-08-17T02:34:11.718Z,98748.43
2017-08-17T02:36:39.169Z,98741.67
2017-08-17T02:39:06.651Z,98742.39
2017-08-17T02:41:34.096Z,98748.89
2017-08-17T02:44:01.556Z,98756.05
2017-08-17T02:46:29.025Z,98751.30
2017-08-17T02:48:56.472Z,98743.67
2017-08-17T02:51:23.945Z,98748.42
2017-08-17T02:53:51.406Z,98743.50
2017-08-17T02:56:18.879Z,98737.84
2017-08-17T02:58:46.329Z,98746.47
2017-08-17T03:01:13.778Z,98742.48
2017-08-17T03:03:41.245Z,98748.38
2017-08-17T03:06:08.702Z,98750.13
2017-08-17T03:08:36.176Z,98744.20
2017-08-17T03:11:03.624Z,98744.31
2017-08-17T03:13:31.065Z,98739.91
2017-08-17T03:15:58.541Z,98749.58
2017-08-17T03:18:25.985Z,98746.62
2017-08-17T03:20:53.433Z,98744.64
2017-08-17T03:23:20.902Z,98746.38
2017-08-17T03:25:48.347Z,98747.38
2017-08-17T03:28:15.816Z,98740.80
2017-08-17T03:30:43.261Z,98739.78
2017-08-17T03:33:10.745Z,98750.15
2017-08-17T03:35:38.195Z,98755.80
2017-08-17T03:38:05.650Z,98739.15
2017-08-17T03:40:33.117Z,98741.86
2017-08-17T03:43:00.566Z,98740.68
2017-08-17T03:45:28.037Z,98731.50
2017-08-17T03:47:55.489Z,98740.31
2017-08-17T03:50:22.936Z,98739.05
2017-08-17T03:52:50.419Z,98743.27
2017-08-17T03:55:17.870Z,98746.00
2017-08-17T03:57:45.333Z,98750.73
2017-08-17T04:00:12.773Z,98755.09
2017-08-17T04:02:40.244Z,98752.33
2017-08-17T04:05:07.709Z,98754.52
2017-08-17T04:07:35.166Z,98758.42
2017-08-17T04:10:02.625Z,98757.51
2017-08-17T04:12:30.079Z,98763.41
2017-08-17T04:14:57.548Z,98768.88
2017-08-17T04:17:25.012Z,98774.51
2017-08-17T04:19:52.465Z,98770.42
2017-08-17T04:22:19.932Z,98764.25
2017-08-17T04:24:47.381Z,98763.31
2017-08-17T04:27:14.848Z,98764.64
2017-08-17T04:29:42.293Z,98763.69
2017-08-17T04:32:09.757Z,98762.09
2017-08-17T04:34:37.241Z,98765.29
2017-08-17T04:37:04.693Z,98756.44
2017-08-17T04:39:32.147Z,98753.66
2017-08-17T04:41:59.623Z,98762.65
2017-08-17T04:44:27.069Z,98754.19
2017-08-17T04:46:54.523Z,98764.84
2017-08-17T04:49:21.989Z,98753.95
2017-08-17T04:51:49.454Z,98755.88
2017-08-17T04:54:16.905Z,98760.95
2017-08-17T04:57:01.824Z,98766.25
2017-08-17T04:59:29.265Z,98762.58
2017-08-17T05:01:56.706Z,98763.28
2017-08-17T05:04:24.172Z,98773.75
2017-08-17T05:06:51.622Z,98773.14
2017-08-17T05:09:19.093Z,98781.64
2017-08-17T05:11:46.544Z,98781.11
2017-08-17T05:14:13.990Z,98781.44
2017-08-17T05:16:41.457Z,98783.63
2017-08-17T05:19:08.903Z,98780.82
2017-08-17T05:21:36.376Z,98784.15
2017-08-17T05:24:03.820Z,98781.61
2017-08-17T05:26:31.290Z,98785.04
2017-08-17T05:28:58.744Z,98777.62
2017-08-17T05:31:26.194Z,98778.41
2017-08-17T05:33:53.662Z,98781.07
2017-08-17T05:36:21.130Z,98784.69
2017-08-17T05:38:48.594Z,98778.22
2017-08-17T05:41:16.050Z,98772.58
2017-08-17T05:43:43.532Z,98773.33
2017-08-17T05:46:11.009Z,98777.31
2017-08-17T05:48:38.494Z,98778.84
2017-08-17T05:51:05.944Z,98784.48
2017-08-17T05:53:33.393Z,98787.98
2017-08-17T05:56:00.864Z,98779.80
2017-08-17T05:58:28.316Z,98787.41
2017-08-17T06:00:55.795Z,98788.40
2017-08-17T06:03:23.253Z,98784.56
2017-08-17T06:05:50.733Z,98778.68
2017-08-17T06:08:18.187Z,98775.39
2017-08-17T06:10:45.649Z,98775.08
2017-08-17T06:13:13.136Z,98773.41
2017-08-17T06:15:40.614Z,98771.29
2017-08-17T06:18:08.071Z,98774.30
2017-08-17T06:20:35.529Z,98775.18
2017-08-17T06:23:03.002Z,98777.34
2017-08-17T06:25:30.451Z,98774.34
2017-08-17T06:27:57.905Z,98772.10
2017-08-17T06:30:25.385Z,98768.30
2017-08-17T06:32:52.825Z,98769.45
2017-08-17T06:35:20.481Z,98768.66
2017-08-17T06:37:47.935Z,98767.66
2017-08-17T06:40:15.433Z,98769.93
2017-08-17T06:42:42.878Z,98767.42
2017-08-17T06:45:10.322Z,98771.09
2017-08-17T06:47:37.788Z,98777.99
2017-08-17T06:50:05.258Z,98774.08
2017-08-17T06:52:32.706Z,98766.73
2017-08-17T06:55:00.165Z,98767.63
2017-08-17T06:57:27.626Z,98770.70
2017-08-17T06:59:55.081Z,98767.27
2017-08-17T07:02:22.546Z,98768.63
2017-08-17T07:04:50.013Z,98774.82
2017-08-17T07:07:17.489Z,98769.73
2017-08-17T07:09:44.944Z,98770.59
2017-08-17T07:12:12.414Z,98773.74
2017-08-17T07:14:39.888Z,98771.36
2017-08-17T07:17:07.357Z,98773.84
2017-08-17T07:19:34.817Z,98774.59
2017-08-17T07:22:02.260Z,98779.20
2017-08-17T07:24:29.720Z,98765.48
2017-08-17T07:26:57.342Z,98765.34
2017-08-17T07:29:24.777Z,98772.29
2017-08-17T07:31:52.222Z,98765.61
2017-08-17T07:34:19.704Z,98774.03
2017-08-17T07:36:47.158Z,98775.66
2017-08-17T07:39:14.609Z,98777.83
2017-08-17T07:41:42.077Z,98777.28
2017-08-17T07:44:09.548Z,98774.44
2017-08-17T07:46:37.011Z,98770.59
2017-08-17T07:49:04.448Z,98764.29
2017-08-17T07:51:31.922Z,98763.84
2017-08-17T07:53:59.362Z,98766.72
2017-08-17T07:56:26.824Z,98752.82
2017-08-17T07:58:54.276Z,98762.86
2017-08-17T08:01:21.763Z,98755.44
2017-08-17T08:03:49.229Z,98753.39
2017-08-17T08:06:16.686Z,98746.39
2017-08-17T08:08:44.149Z,98745.55
2017-08-17T08:11:11.617Z,98745.06
2017-08-17T08:13:39.054Z,98745.47
2017-08-17T08:16:06.498Z,98749.10
2017-08-17T08:18:33.966Z,98752.28
2017-08-17T08:21:01.433Z,98747.48
2017-08-17T08:23:28.896Z,98754.95
2017-08-17T08:25:56.340Z,98747.27
2017-08-17T08:28:23.811Z,98750.70
2017-08-17T08:30:51.286Z,98749.35
2017-08-17T08:33:18.725Z,98751.47
2017-08-17T08:35:46.202Z,98761.41
2017-08-17T08:38:13.654Z,98754.72
2017-08-17T08:40:41.100Z,98749.94
2017-08-17T08:43:08.589Z,98753.63
2017-08-17T08:45:36.042Z,98754.56
2017-08-17T08:48:03.520Z,98748.94
2017-08-17T08:50:30.977Z,98738.06
2017-08-17T08:52:58.449Z,98736.80
2017-08-17T08:55:25.895Z,98744.91
2017-08-17T08:57:53.365Z,98752.41
2017-08-17T09:00:20.835Z,98750.12
2017-08-17T09:02:48.281Z,98754.06
2017-08-17T09:05:15.766Z,98745.95
2017-08-17T09:07:43.209Z,98745.25
2017-08-17T09:10:10.664Z,98746.28
2017-08-17T09:12:38.154Z,98742.64
2017-08-17T09:15:05.603Z,98732.33
2017-08-17T09:17:33.048Z,98734.30
2017-08-17T09:20:00.517Z,98728.45
2017-08-17T09:22:27.965Z,98732.11
2017-08-17T09:24:55.418Z,98726.11
2017-08-17T09:27:22.881Z,98731.83
2017-08-17T09:29:50.346Z,98728.33
2017-08-17T09:32:17.796Z,98724.53
2017-08-17T09:34:45.265Z,98721.77
2017-08-17T09:37:12.719Z,98725.25
2017-08-17T09:39:40.184Z,98714.83
2017-08-17T09:42:07.634Z,98718.41
2017-08-17T09:44:35.109Z,98711.80
2017-08-17T09:47:02.589Z,98702.19
2017-08-17T09:49:30.041Z,98693.93
2017-08-17T09:51:57.493Z,98700.20
2017-08-17T09:54:24.976Z,98701.97
2017-08-17T09:56:52.435Z,98700.70
2017-08-17T09:59:19.896Z,98699.84
2017-08-17T10:01:47.359Z,98695.86
2017-08-17T10:04:14.837Z,98697.19
2017-08-17T10:06:42.298Z,98690.78
2017-08-17T10:09:09.753Z,98692.16
2017-08-17T10:11:37.217Z,98689.50
2017-08-17T10:14:04.658Z,98684.73
2017-08-17T10:16:32.125Z,98681.88
2017-08-17T10:18:59.593Z,98686.19
2017-08-17T10:21:27.042Z,98676.16
2017-08-17T10:23:54.517Z,98675.22
2017-08-17T10:26:21.977Z,98666.87
2017-08-17T10:28:49.449Z,98669.90
2017-08-17T10:31:16.921Z,98674.10
2017-08-17T10:33:44.363Z,98670.67
2017-08-17T10:36:11.815Z,98666.98
2017-08-17T10:38:39.293Z,98668.28
2017-08-17T10:41:06.754Z,98664.98
2017-08-17T10:43:34.239Z,98667.37
2017-08-17T10:46:01.709Z,98659.27
2017-08-17T10:48:29.182Z,98658.70
2017-08-17T10:50:56.624Z,98658.84
2017-08-17T10:53:24.088Z,98651.38
2017-08-17T10:55:51.550Z,98655.52
2017-08-17T10:58:19.014Z,98646.59
2017-08-17T11:00:46.485Z,98642.94
2017-08-17T11:03:13.937Z,98648.80
2017-08-17T11:05:41.413Z,98633.52
2017-08-17T11:08:08.877Z,98634.73
2017-08-17T11:10:36.323Z,98638.69
2017-08-17T11:13:03.798Z,98633.36
2017-08-17T11:15:31.248Z,98632.48
2017-08-17T11:17:58.696Z,98628.37
2017-08-17T11:20:26.175Z,98634.52
2017-08-17T11:22:53.615Z,98633.68
2017-08-17T11:25:21.089Z,98632.04
2017-08-17T11:27:48.557Z,98624.66
2017-08-17T11:30:16.026Z,98636.59
2017-08-17T11:32:43.498Z,98628.55
2017-08-17T11:35:10.956Z,98621.92
2017-08-17T11:37:38.408Z,98626.54
2017-08-17T11:40:05.870Z,98625.61
2017-08-17T11:42:33.310Z,98623.29
2017-08-17T11:45:00.785Z,98617.55
2017-08-17T11:47:28.225Z,98618.53
2017-08-17T11:49:55.686Z,98616.79
2017-08-17T11:52:23.158Z,98611.43
2017-08-17T11:54:50.615Z,98613.86
2017-08-17T11:57:18.057Z,98609.37
2017-08-17T11:59:45.525Z,98608.77
2017-08-17T12:02:12.972Z,98602.33
2017-08-17T12:04:40.419Z,98605.77
2017-08-17T12:07:07.885Z,98599.55
2017-08-17T12:09:35.331Z,98594.81
2017-08-17T12:12:02.831Z,98601.08
2017-08-17T12:14:30.273Z,98601.04
2017-08-17T12:16:57.716Z,98584.66
2017-08-17T12:19:25.188Z,98590.11
2017-08-17T12:21:52.684Z,98588.04
2017-08-17T12:24:20.134Z,98583.50
2017-08-17T12:26:47.605Z,98583.64
2017-08-17T12:29:15.041Z,98583.67
2017-08-17T12:31:42.486Z,98581.27
2017-08-17T12:34:09.950Z,98570.70
2017-08-17T12:36:37.397Z,98575.90
2017-08-17T12:39:04.877Z,98569.23
2017-08-17T12:41:32.345Z,98565.58
2017-08-17T12:43:59.801Z,98568.45
2017-08-17T12:46:27.269Z,98568.95
2017-08-17T12:48:54.713Z,98563.19
2017-08-17T12:51:22.163Z,98564.08
2017-08-17T12:53:49.632Z,98560.37
2017-08-17T12:56:17.102Z,98557.16
2017-08-17T12:58:44.540Z,98558.31
2017-08-17T13:01:11.998Z,98551.17
2017-08-17T13:03:39.466Z,98540.48
2017-08-17T13:06:06.921Z,98543.11
2017-08-17T13:08:34.388Z,98542.30
2017-08-17T13:11:02.157Z,98541.65
2017-08-17T13:13:29.633Z,98539.34
2017-08-17T13:15:57.077Z,98536.71
2017-08-17T13:18:24.551Z,98531.47
2017-08-17T13:20:52.000Z,98533.02
2017-08-17T13:23:19.467Z,98528.73
2017-08-17T13:25:46.914Z,98522.63
2017-08-17T13:28:14.387Z,98520.56
2017-08-17T13:30:41.851Z,98529.61
2017-08-17T13:33:09.302Z,98524.86
2017-08-17T13:35:36.773Z,98516.78
2017-08-17T13:38:04.213Z,98516.34
2017-08-17T13:40:31.666Z,98511.58
2017-08-17T13:42:59.156Z,98512.23
2017-08-17T13:45:26.593Z,98503.84
2017-08-17T13:47:54.047Z,98503.89
2017-08-17T13:50:21.514Z,98499.92
2017-08-17T13:52:48.967Z,98499.78
2017-08-17T13:55:16.433Z,98499.30
2017-08-17T13:57:43.881Z,98499.45
2017-08-17T14:00:11.326Z,98498.52
2017-08-17T14:02:38.818Z,98492.11
2017-08-17T14:05:06.262Z,98483.03
2017-08-17T14:07:33.725Z,98492.78
2017-08-17T14:10:01.195Z,98483.23
2017-08-17T14:12:28.670Z,98479.47
2017-08-17T14:14:56.113Z,98479.34
2017-08-17T14:17:23.588Z,98474.69
2017-08-17T14:19:51.053Z,98483.25
2017-08-17T14:22:18.497Z,98472.33
2017-08-17T14:24:45.971Z,98477.47
2017-08-17T14:27:13.414Z,98479.43
2017-08-17T14:29:40.869Z,98480.77
2017-08-17T14:32:08.332Z,98483.20
2017-08-17T14:34:35.781Z,98483.87
2017-08-17T14:37:03.259Z,98477.41
2017-08-17T14:39:30.706Z,98479.05
2017-08-17T14:41:58.186Z,98476.39
2017-08-17T14:44:25.629Z,98477.48
2017-08-17T14:46:53.081Z,98478.63
2017-08-17T14:49:20.545Z,98473.39
2017-08-17T14:51:48.022Z,98474.97
2017-08-17T14:54:15.473Z,98476.50
2017-08-17T14:56:42.937Z,98474.77
2017-08-17T14:59:10.382Z,98476.85
2017-08-17T15:01:37.857Z,98479.93
2017-08-17T15:04:05.305Z,98474.16
2017-08-17T15:06:32.749Z,98476.02
2017-08-17T15:09:00.221Z,98474.22
2017-08-17T15:11:27.692Z,98464.62
2017-08-17T15:13:55.144Z,98461.49
2017-08-17T15:16:22.629Z,98455.40
2017-08-17T15:18:50.097Z,98452.92
2017-08-17T15:21:17.545Z,98453.53
2017-08-17T15:23:44.987Z,98447.58
2017-08-17T15:26:12.445Z,98445.41
2017-08-17T15:28:39.898Z,98443.32
2017-08-17T15:31:07.377Z,98443.73
2017-08-17T15:33:34.823Z,98440.84
2017-08-17T15:36:02.265Z,98446.25
2017-08-17T15:38:29.736Z,98442.20
2017-08-17T15:40:57.210Z,98443.06
2017-08-17T15:43:24.672Z,98444.69
2017-08-17T15:45:52.141Z,98437.87
2017-08-17T15:48:19.625Z,98434.65
2017-08-17T15:50:47.069Z,98436.60
2017-08-17T15:53:14.513Z,98431.30
2017-08-17T15:55:41.987Z,98439.28
2017-08-17T15:58:09.436Z,98434.15
2017-08-17T16:00:36.914Z,98430.44
2017-08-17T16:03:04.838Z,98439.08
2017-08-17T16:05:32.329Z,98432.55
2017-08-17T16:07:59.837Z,98431.12
2017-08-17T16:10:27.289Z,98428.58
2017-08-17T16:12:56.044Z,98424.24
2017-08-17T16:15:23.490Z,98435.11
2017-08-17T16:17:50.947Z,98429.98
2017-08-17T16:20:18.466Z,98429.41
2017-08-17T16:22:45.916Z,98431.30
2017-08-17T16:25:13.361Z,98433.80
2017-08-17T16:27:40.845Z,98425.75
2017-08-17T16:30:08.299Z,98436.83
2017-08-17T16:32:36.607Z,98430.41
2017-08-17T16:35:04.570Z,98435.70
2017-08-17T16:37:32.041Z,98424.09
2017-08-17T16:39:59.499Z,98426.77
2017-08-17T16:42:26.976Z,98420.22
2017-08-17T16:44:55.018Z,98416.23
2017-08-17T16:47:22.469Z,98414.16
2017-08-17T16:49:49.989Z,98414.69
2017-08-17T16:52:17.446Z,98416.22
2017-08-17T16:54:45.673Z,98420.43
2017-08-17T16:57:13.556Z,98417.15
2017-08-17T16:59:41.024Z,98415.77
2017-08-17T17:02:08.486Z,98415.72
2017-08-17T17:04:35.955Z,98416.58
2017-08-17T17:07:03.400Z,98418.42
2017-08-17T17:09:30.874Z,98416.67
2017-08-17T17:11:58.930Z,98424.55
2017-08-17T17:14:26.383Z,98427.86
2017-08-17T17:16:55.101Z,98425.30
2017-08-17T17:19:22.687Z,98418.73
2017-08-17T17:22:18.231Z,98418.46
2017-08-17T17:24:45.693Z,98416.48
2017-08-17T17:27:13.165Z,98422.24
2017-08-17T17:29:40.637Z,98423.31
2017-08-17T17:32:08.253Z,98426.98
2017-08-17T17:34:35.698Z,98426.33
2017-08-17T17:37:03.947Z,98433.59
2017-08-17T17:39:31.425Z,98431.08
2017-08-17T17:41:58.883Z,98430.95
2017-08-17T17:44:26.363Z,98433.42
2017-08-17T17:46:53.829Z,98430.49
2017-08-17T17:49:21.925Z,98428.58
2017-08-17T17:51:49.392Z,98434.31
2017-08-17T17:54:16.863Z,98441.38
2017-08-17T17:56:44.327Z,98449.72
2017-08-17T17:59:11.817Z,98448.39
2017-08-17T18:01:39.288Z,98451.00
2017-08-17T18:04:06.736Z,98455.70
2017-08-17T18:06:34.221Z,98458.95
2017-08-17T18:09:01.681Z,98459.78
2017-08-17T18:11:29.139Z,98468.69
2017-08-17T18:13:56.610Z,98461.64
2017-08-17T18:16:24.053Z,98469.70
2017-08-17T18:18:51.529Z,98470.58
2017-08-17T18:21:18.981Z,98468.82
2017-08-17T18:23:46.424Z,98475.61
2017-08-17T18:26:13.904Z,98473.45
2017-08-17T18:28:41.344Z,98473.98
2017-08-17T18:31:08.817Z,98468.28
2017-08-17T18:33:36.263Z,98481.53
2017-08-17T18:36:03.720Z,98478.38
2017-08-17T18:38:31.193Z,98475.22
2017-08-17T18:40:58.669Z,98479.86
2017-08-17T18:43:26.114Z,98488.44
2017-08-17T18:45:53.597Z,98487.42
2017-08-17T18:48:21.073Z,98492.39
2017-08-17T18:50:48.540Z,98491.16
2017-08-17T18:53:16.029Z,98495.67
2017-08-17T18:55:43.480Z,98491.47
2017-08-17T18:58:10.946Z,98502.91
2017-08-17T19:00:38.421Z,98504.67
2017-08-17T19:03:05.901Z,98504.39
2017-08-17T19:05:33.373Z,98506.44
2017-08-17T19:08:00.820Z,98508.77
2017-08-17T19:10:28.289Z,98511.42
2017-08-17T19:12:55.742Z,98513.43
2017-08-17T19:15:23.202Z,98513.52
2017-08-17T19:17:50.653Z,98515.58
2017-08-17T19:20:18.127Z,98518.34
2017-08-17T19:22:45.986Z,98517.63
2017-08-17T19:25:13.457Z,98520.96
2017-08-17T19:27:41.476Z,98511.77
2017-08-17T19:30:08.971Z,98514.39
2017-08-17T19:32:36.466Z,98509.64
2017-08-17T19:35:04.412Z,98508.90
2017-08-17T19:37:31.853Z,98511.53
2017-08-17T19:39:59.328Z,98519.14
2017-08-17T19:42:26.775Z,98518.02
2017-08-17T19:44:55.024Z,98514.38
2017-08-17T19:47:22.500Z,98511.97
2017-08-17T19:49:49.944Z,98508.71
2017-08-17T19:52:17.500Z,98514.19
2017-08-17T19:54:45.030Z,98512.58
2017-08-17T19:57:12.826Z,98505.70
2017-08-17T19:59:40.501Z,98512.31
2017-08-17T20:02:08.284Z,98511.52
2017-08-17T20:04:35.767Z,98510.07
2017-08-17T20:07:03.216Z,98507.55
2017-08-17T20:09:30.683Z,98502.83
2017-08-17T20:11:58.182Z,98504.33
2017-08-17T20:14:26.084Z,98498.85
2017-08-17T20:16:53.528Z,98496.44
2017-08-17T20:19:20.998Z,98500.95
2017-08-17T20:21:48.645Z,98500.88
2017-08-17T20:24:16.107Z,98498.00
2017-08-17T20:26:43.550Z,98508.30
2017-08-17T20:29:11.002Z,98500.95
2017-08-17T20:31:38.640Z,98497.80
2017-08-17T20:34:06.110Z,98505.41
2017-08-17T20:36:33.613Z,98502.99
2017-08-17T20:39:01.394Z,98509.89
2017-08-17T20:41:28.916Z,98511.80
2017-08-17T20:43:56.364Z,98505.54
2017-08-17T20:46:23.849Z,98513.96
2017-08-17T20:48:51.401Z,98513.73
2017-08-17T20:51:18.933Z,98510.89
2017-08-17T20:53:46.401Z,98505.45
2017-08-17T20:56:13.881Z,98509.98
2017-08-17T20:58:41.325Z,98507.80
2017-08-17T21:01:08.777Z,98510.73
2017-08-17T21:03:36.260Z,98506.37
2017-08-17T21:06:03.713Z,98506.38
2017-08-17T21:08:31.186Z,98509.56
2017-08-17T21:10:58.625Z,98514.16
2017-08-17T21:13:26.080Z,98517.98
2017-08-17T21:15:53.548Z,98514.98
2017-08-17T21:18:21.022Z,98514.31
2017-08-17T21:20:48.469Z,98513.71
2017-08-17T21:23:15.915Z,98508.30
2017-08-17T21:25:43.389Z,98507.96
2017-08-17T21:28:10.836Z,98515.89
2017-08-17T21:30:38.287Z,98512.48
2017-08-17T21:33:06.012Z,98513.23
2017-08-17T21:35:33.480Z,98515.90
2017-08-17T21:38:00.928Z,98513.64
2017-08-17T21:40:28.398Z,98516.16
2017-08-17T21:42:55.857Z,98526.09
2017-08-17T21:45:23.306Z,98527.50
2017-08-17T21:47:50.778Z,98523.33
2017-08-17T21:50:18.230Z,98531.81
2017-08-17T21:52:45.676Z,98526.42
2017-08-17T21:55:13.153Z,98525.43
2017-08-17T21:57:40.589Z,98526.30
2017-08-17T22:02:34.823Z,98517.27
2017-08-17T22:05:02.284Z,98521.99
2017-08-17T22:07:29.732Z,98518.92
2017-08-17T22:09:57.208Z,98526.50
2017-08-17T22:12:24.661Z,98529.96
2017-08-17T22:14:52.120Z,98533.41
2017-08-17T22:17:19.597Z,98527.66
2017-08-17T22:19:47.045Z,98531.34
2017-08-17T22:22:14.507Z,98525.89
2017-08-17T22:24:41.982Z,98531.25
2017-08-17T22:27:09.439Z,98535.20
2017-08-17T22:29:36.920Z,98529.87
2017-08-17T22:32:04.361Z,98530.52
2017-08-17T22:34:31.813Z,98533.70
2017-08-17T22:36:59.277Z,98530.80
2017-08-17T22:39:26.723Z,98521.24
2017-08-17T22:41:54.193Z,98525.43
2017-08-17T22:44:21.639Z,98523.20
2017-08-17T22:46:49.116Z,98526.73
2017-08-17T22:49:16.588Z,98520.88
2017-08-17T22:51:44.060Z,98516.30
2017-08-17T22:54:11.500Z,98514.73
2017-08-17T22:56:38.964Z,98510.77
2017-08-17T22:59:06.401Z,98510.81
2017-08-17T23:01:33.878Z,98505.47
2017-08-17T23:04:01.326Z,98512.52
2017-08-17T23:06:28.793Z,98518.39
2017-08-17T23:08:56.266Z,98516.97
2017-08-17T23:11:23.735Z,98523.41
2017-08-17T23:13:51.176Z,98530.31
2017-08-17T23:16:18.644Z,98530.92
2017-08-17T23:18:46.090Z,98527.66
2017-08-17T23:21:13.541Z,98528.56
2017-08-17T23:23:41.024Z,98528.14
2017-08-17T23:26:08.460Z,98523.34
2017-08-17T23:28:35.916Z,98518.92
2017-08-17T23:31:03.388Z,98531.45
2017-08-17T23:33:30.830Z,98529.83
2017-08-17T23:35:58.277Z,98536.72
2017-08-17T23:38:25.748Z,98536.48
2017-08-17T23:40:53.208Z,98539.38
2017-08-17T23:43:20.668Z,98536.66
2017-08-17T23:45:48.136Z,98538.41
2017-08-17T23:48:15.592Z,98532.99
2017-08-17T23:50:43.068Z,98532.09
2017-08-17T23:53:10.514Z,98530.95
2017-08-17T23:55:38.134Z,98525.50
2017-08-17T23:58:05.605Z,98530.03
